Time;durP1;ratioP1;P1;durP2;ratioP2;P2;SDS_P1;SDS_P2;PMS_P1;PMS_P2;Temp;Humidity;BMP_temperature;BMP_pressure;BME280_temperature;BME280_humidity;BME280_pressure;Samples;Min_cycle;Max_cycle;Signal;HPM_P1;HPM_P2
2022/07/10 00:00:17;;;;;;;5.00;0.80;;;;;;;15.30;71.07;100415.05;105866;1273;25350;-65
2022/07/10 00:03:05;;;;;;;4.70;0.70;;;;;;;15.30;71.34;100411.48;105795;1273;25278;-65
2022/07/10 00:05:35;;;;;;;4.40;0.90;;;;;;;15.31;71.37;100409.43;105695;1274;24332;-64
2022/07/10 00:08:04;;;;;;;5.50;1.30;;;;;;;15.31;71.70;100406.88;105666;1273;24372;-65
2022/07/10 00:10:33;;;;;;;4.10;1.10;;;;;;;15.30;71.88;100403.85;105811;1273;22637;-65
2022/07/10 00:13:03;;;;;;;7.50;0.80;;;;;;;15.30;71.79;100400.98;105652;1273;24429;-65
2022/07/10 00:15:32;;;;;;;5.50;0.80;;;;;;;15.30;72.27;100404.91;105693;1273;25516;-65
2022/07/10 00:18:00;;;;;;;5.90;0.70;;;;;;;15.29;72.19;100410.55;105760;1274;22723;-66
2022/07/10 00:20:29;;;;;;;4.90;1.00;;;;;;;15.28;72.58;100407.48;105583;1273;24444;-65
2022/07/10 00:22:58;;;;;;;5.30;1.00;;;;;;;15.25;72.84;100414.02;105901;1273;22674;-64
2022/07/10 00:25:27;;;;;;;2.30;0.70;;;;;;;15.23;72.79;100411.65;105755;1273;22749;-65
2022/07/10 00:27:56;;;;;;;5.60;0.80;;;;;;;15.20;73.19;100407.80;105787;1273;22750;-65
2022/07/10 00:30:26;;;;;;;4.10;0.80;;;;;;;15.16;73.65;100404.48;105761;1273;25507;-65
2022/07/10 00:32:55;;;;;;;3.80;0.90;;;;;;;15.12;73.46;100399.76;105907;1273;22568;-65
2022/07/10 00:35:23;;;;;;;4.20;1.00;;;;;;;15.09;73.76;100404.05;105810;1273;25330;-65
2022/07/10 00:37:52;;;;;;;3.50;0.80;;;;;;;15.06;73.76;100406.73;105661;1273;22660;-65
2022/07/10 00:40:21;;;;;;;4.10;0.90;;;;;;;15.03;73.95;100403.36;105700;1273;25423;-65
2022/07/10 00:42:50;;;;;;;3.90;0.80;;;;;;;14.98;74.17;100394.29;105654;1274;25378;-64
2022/07/10 00:45:18;;;;;;;2.60;0.70;;;;;;;14.94;74.24;100389.93;105705;1273;24742;-65
2022/07/10 00:47:47;;;;;;;4.10;0.90;;;;;;;14.90;74.29;100388.84;105755;1273;25258;-64
2022/07/10 00:50:16;;;;;;;5.80;0.90;;;;;;;14.87;74.48;100395.11;106023;1273;24249;-65
2022/07/10 00:52:47;;;;;;;5.00;0.90;;;;;;;14.84;74.74;100397.05;105742;1273;22567;-66
2022/07/10 00:55:16;;;;;;;4.00;0.60;;;;;;;14.79;74.88;100394.37;105683;1273;24988;-64
2022/07/10 00:57:46;;;;;;;10.30;1.10;;;;;;;14.75;74.98;100394.11;105686;1273;22765;-64
2022/07/10 01:00:15;;;;;;;5.40;1.10;;;;;;;14.73;75.20;100398.68;105635;1273;24242;-64
2022/07/10 01:02:45;;;;;;;4.60;1.10;;;;;;;14.69;75.43;100404.85;105764;1273;25282;-65
2022/07/10 01:05:14;;;;;;;3.70;0.90;;;;;;;14.66;75.62;100403.20;105706;1273;22582;-64
2022/07/10 01:07:43;;;;;;;3.90;1.00;;;;;;;14.63;75.76;100401.20;105678;1273;25218;-65
2022/07/10 01:10:12;;;;;;;7.40;1.00;;;;;;;14.61;75.85;100400.06;105811;1274;22985;-64
2022/07/10 01:12:41;;;;;;;5.00;1.00;;;;;;;14.58;75.94;100396.02;105835;1273;22633;-64
2022/07/10 01:15:11;;;;;;;6.20;1.10;;;;;;;14.58;76.53;100393.61;105719;1273;23949;-64
2022/07/10 01:17:38;;;;;;;;;;;;;;;14.57;76.31;100391.45;105781;1273;23203;-65
2022/07/10 01:20:09;;;;;;;4.50;0.90;;;;;;;14.54;76.75;100389.19;105689;1273;25275;-64
2022/07/10 01:22:38;;;;;;;5.60;1.00;;;;;;;14.51;76.69;100393.52;105687;1273;22589;-65
2022/07/10 01:25:10;;;;;;;5.50;1.00;;;;;;;14.49;77.07;100388.13;105639;1273;25433;-64
2022/07/10 01:27:39;;;;;;;2.60;0.90;;;;;;;14.44;77.15;100390.33;105562;1274;22576;-65
2022/07/10 01:30:10;;;;;;;5.30;1.00;;;;;;;14.40;77.37;100390.50;105761;1273;24302;-65
2022/07/10 01:32:40;;;;;;;7.60;0.90;;;;;;;14.37;77.48;100401.45;105710;1273;22560;-65
2022/07/10 01:35:10;;;;;;;6.70;1.60;;;;;;;14.32;78.38;100402.85;105691;1273;22614;-65
2022/07/10 01:37:38;;;;;;;;;;;;;;;14.25;78.32;100403.34;105817;1273;25430;-65
2022/07/10 01:40:09;;;;;;;3.60;1.10;;;;;;;14.19;78.58;100404.42;105690;1273;25267;-64
2022/07/10 01:42:38;;;;;;;5.20;1.00;;;;;;;14.14;78.55;100405.05;105859;1273;22589;-65
2022/07/10 01:45:10;;;;;;;5.20;1.10;;;;;;;14.12;78.75;100402.93;105944;1273;24741;-65
2022/07/10 01:47:39;;;;;;;3.60;0.90;;;;;;;14.08;78.72;100401.18;105706;1273;22714;-64
2022/07/10 01:50:09;;;;;;;6.40;1.30;;;;;;;14.05;78.97;100400.03;105849;1273;22566;-65
2022/07/10 01:52:37;;;;;;;;;;;;;;;14.01;79.15;100399.08;105821;1273;22525;-65
2022/07/10 01:55:08;;;;;;;7.10;1.20;;;;;;;13.98;79.38;100396.96;106074;1273;22565;-64
2022/07/10 01:57:38;;;;;;;6.40;1.30;;;;;;;13.96;79.31;100397.09;105801;1273;22710;-64
2022/07/10 02:00:10;;;;;;;7.20;1.20;;;;;;;13.93;79.78;100395.71;105723;1275;22560;-64
2022/07/10 02:02:39;;;;;;;3.80;1.10;;;;;;;13.92;79.97;100395.90;105645;1273;22791;-64
2022/07/10 02:05:09;;;;;;;5.40;1.70;;;;;;;13.91;79.98;100395.38;105813;1273;25341;-64
2022/07/10 02:07:36;;;;;;;;;;;;;;;13.90;80.11;100392.73;105688;1273;22526;-64
2022/07/10 02:10:07;;;;;;;6.10;1.30;;;;;;;13.89;80.08;100400.52;105665;1273;22586;-64
2022/07/10 02:12:35;;;;;;;3.90;1.40;;;;;;;13.86;80.15;100401.88;105635;1273;25512;-64
2022/07/10 02:15:06;;;;;;;5.80;1.10;;;;;;;13.84;80.79;100401.30;105683;1273;25363;-64
2022/07/10 02:17:35;;;;;;;6.30;1.30;;;;;;;13.81;80.93;100408.16;105693;1274;22560;-64
2022/07/10 02:20:07;;;;;;;6.90;1.40;;;;;;;13.78;81.17;100406.85;105792;1273;25382;-65
2022/07/10 02:22:36;;;;;;;5.20;1.30;;;;;;;13.76;81.12;100411.69;105643;1273;22615;-64
2022/07/10 02:25:06;;;;;;;6.30;1.50;;;;;;;13.75;81.14;100413.21;105981;1273;25245;-65
2022/07/10 02:27:36;;;;;;;5.30;1.30;;;;;;;13.74;81.14;100411.82;105697;1273;22550;-65
2022/07/10 02:30:06;;;;;;;6.80;1.30;;;;;;;13.74;81.01;100411.02;105623;1274;24431;-65
2022/07/10 02:32:35;;;;;;;5.90;1.50;;;;;;;13.73;81.28;100406.36;105900;1273;25336;-64
2022/07/10 02:35:05;;;;;;;4.90;1.20;;;;;;;13.73;81.25;100403.96;105868;1273;25379;-65
2022/07/10 02:37:33;;;;;;;;;;;;;;;13.73;81.36;100396.97;105616;1276;24334;-64
2022/07/10 02:40:02;;;;;;;6.50;1.00;;;;;;;13.72;81.29;100403.18;105800;1273;22559;-65
2022/07/10 02:42:31;;;;;;;5.70;1.20;;;;;;;13.69;81.36;100402.30;105925;1273;26654;-65
2022/07/10 02:44:59;;;;;;;5.80;1.30;;;;;;;13.69;81.36;100403.20;105788;1273;25267;-65
2022/07/10 02:47:29;;;;;;;5.10;1.10;;;;;;;13.69;81.09;100406.06;105911;1273;24315;-65
2022/07/10 02:49:57;;;;;;;4.30;1.10;;;;;;;13.69;81.26;100406.23;105747;1273;22631;-65
2022/07/10 02:52:26;;;;;;;5.60;1.30;;;;;;;13.70;81.07;100411.08;105788;1273;24241;-64
2022/07/10 02:54:56;;;;;;;4.90;0.90;;;;;;;13.71;81.20;100405.11;105904;1273;25372;-65
2022/07/10 02:57:25;;;;;;;5.80;1.10;;;;;;;13.73;81.12;100404.73;105814;1273;23000;-64
2022/07/10 02:59:54;;;;;;;7.00;1.10;;;;;;;13.73;80.99;100404.00;105868;1273;22559;-63
2022/07/10 03:02:22;;;;;;;6.40;1.00;;;;;;;13.73;81.02;100403.81;105796;1273;25372;-64
2022/07/10 03:04:51;;;;;;;7.30;1.20;;;;;;;13.74;81.01;100411.05;105852;1273;23978;-64
2022/07/10 03:07:20;;;;;;;4.20;1.10;;;;;;;13.74;81.04;100411.71;105694;1273;22563;-64
2022/07/10 03:09:49;;;;;;;3.80;1.20;;;;;;;13.74;81.12;100409.59;105427;1273;643857;-64
2022/07/10 03:12:17;;;;;;;5.10;0.90;;;;;;;13.75;80.89;100412.75;105673;1273;25417;-64
2022/07/10 03:14:46;;;;;;;5.20;1.00;;;;;;;13.75;81.48;100416.02;105777;1273;23026;-64
2022/07/10 03:17:15;;;;;;;5.60;1.10;;;;;;;13.74;81.30;100420.89;105923;1273;25417;-64
2022/07/10 03:19:44;;;;;;;5.50;1.00;;;;;;;13.73;81.13;100418.09;105809;1273;24239;-63
2022/07/10 03:22:13;;;;;;;3.70;0.80;;;;;;;13.73;81.09;100412.57;105706;1273;22573;-64
2022/07/10 03:24:43;;;;;;;5.70;1.00;;;;;;;13.70;81.01;100419.14;105850;1273;22567;-64
2022/07/10 03:27:11;;;;;;;4.90;1.10;;;;;;;13.66;81.23;100413.23;105753;1273;22719;-64
2022/07/10 03:29:40;;;;;;;5.80;1.50;;;;;;;13.64;81.38;100414.84;106000;1274;24304;-63
2022/07/10 03:32:10;;;;;;;4.80;1.00;;;;;;;13.61;81.30;100412.20;105989;1273;22577;-64
2022/07/10 03:34:39;;;;;;;6.30;1.00;;;;;;;13.57;81.37;100412.11;106050;1273;23610;-64
2022/07/10 03:37:08;;;;;;;3.70;1.00;;;;;;;13.56;81.30;100407.27;105715;1273;25372;-64
2022/07/10 03:39:37;;;;;;;5.00;1.00;;;;;;;13.55;81.63;100413.48;105760;1273;23818;-64
2022/07/10 03:42:06;;;;;;;2.40;0.90;;;;;;;13.51;81.52;100415.13;105738;1274;24487;-64
2022/07/10 03:44:35;;;;;;;5.20;0.90;;;;;;;13.48;81.22;100409.18;105653;1273;25351;-64
2022/07/10 03:47:05;;;;;;;7.30;1.00;;;;;;;13.44;81.40;100414.75;105717;1273;22705;-64
2022/07/10 03:49:34;;;;;;;5.60;0.90;;;;;;;13.40;81.36;100414.77;105764;1273;25361;-65
2022/07/10 03:52:03;;;;;;;7.70;0.70;;;;;;;13.37;81.35;100415.86;105785;1273;22554;-64
2022/07/10 03:54:33;;;;;;;4.20;0.80;;;;;;;13.35;81.44;100416.34;105708;1273;25497;-64
2022/07/10 03:59:48;;;;;;;6.10;1.10;;;;;;;13.27;81.42;100416.46;105624;1273;23369;-64
2022/07/10 04:02:17;;;;;;;3.10;0.70;;;;;;;13.26;81.34;100416.71;105710;1273;22560;-65
2022/07/10 04:04:47;;;;;;;6.20;0.80;;;;;;;13.26;81.51;100417.83;105661;1273;22587;-64
2022/07/10 04:07:16;;;;;;;5.80;1.00;;;;;;;13.27;81.32;100420.34;106279;1263;22552;-54
2022/07/10 04:09:46;;;;;;;6.40;1.00;;;;;;;13.29;81.49;100422.20;105703;1273;23997;-54
2022/07/10 04:12:16;;;;;;;5.70;0.80;;;;;;;13.34;81.46;100425.66;105690;1273;24322;-55
2022/07/10 04:14:47;;;;;;;6.50;0.80;;;;;;;13.38;81.13;100427.44;109658;1273;22498;-52
2022/07/10 04:17:15;;;;;;;5.50;0.70;;;;;;;13.41;80.96;100421.23;106600;1273;24315;-54
2022/07/10 04:19:46;;;;;;;5.60;0.90;;;;;;;13.44;80.57;100420.81;105777;1273;24322;-52
2022/07/10 04:22:13;;;;;;;;;;;;;;;13.48;80.42;100423.30;106329;1273;24385;-51
2022/07/10 04:24:42;;;;;;;4.20;0.60;;;;;;;13.49;79.91;100421.06;105535;1273;22538;-53
2022/07/10 04:27:11;;;;;;;7.50;0.90;;;;;;;13.50;80.11;100413.98;105813;1273;25332;-56
2022/07/10 04:29:39;;;;;;;6.10;0.80;;;;;;;13.55;79.94;100413.06;105994;1273;22544;-55
2022/07/10 04:32:09;;;;;;;5.40;0.80;;;;;;;13.59;79.71;100413.52;105718;1273;24053;-55
2022/07/10 04:34:39;;;;;;;4.20;0.70;;;;;;;13.65;79.23;100415.01;105721;1273;22668;-53
2022/07/10 04:37:08;;;;;;;5.70;0.60;;;;;;;13.65;78.88;100408.64;105817;1273;22700;-52
2022/07/10 04:39:38;;;;;;;8.00;1.30;;;;;;;13.66;78.70;100405.47;105939;1274;22569;-52
2022/07/10 04:42:08;;;;;;;6.40;0.70;;;;;;;13.65;78.59;100403.69;106081;1273;25286;-57
2022/07/10 04:44:38;;;;;;;4.80;0.60;;;;;;;13.66;78.76;100407.67;105838;1273;22563;-51
2022/07/10 04:47:07;;;;;;;5.90;0.60;;;;;;;13.66;78.75;100410.88;105671;1273;25361;-56
2022/07/10 04:49:36;;;;;;;5.30;0.70;;;;;;;13.69;78.76;100413.16;105904;1273;22775;-54
2022/07/10 04:52:07;;;;;;;4.90;0.70;;;;;;;13.72;78.67;100418.04;105902;1273;22672;-55
2022/07/10 04:54:36;;;;;;;4.50;0.90;;;;;;;13.76;78.40;100415.56;105667;1273;25035;-53
2022/07/10 04:57:06;;;;;;;3.30;0.50;;;;;;;13.80;78.51;100413.45;105747;1273;22692;-56
2022/07/10 04:59:34;;;;;;;9.50;0.70;;;;;;;13.87;78.47;100411.94;105809;1273;23336;-51
2022/07/10 05:02:04;;;;;;;9.20;1.70;;;;;;;13.95;78.39;100409.80;105829;1274;24290;-52
2022/07/10 05:04:34;;;;;;;9.40;1.30;;;;;;;14.02;78.18;100409.55;105881;1273;25551;-53
2022/07/10 05:07:03;;;;;;;9.00;1.00;;;;;;;14.09;78.14;100409.86;105993;1274;25981;-53
2022/07/10 05:09:31;;;;;;;6.20;0.70;;;;;;;14.13;77.90;100415.52;105998;1273;25383;-52
2022/07/10 05:12:00;;;;;;;5.30;0.90;;;;;;;14.17;77.88;100416.31;105955;1273;22536;-53
2022/07/10 05:14:29;;;;;;;9.50;0.80;;;;;;;14.22;77.83;100416.29;105798;1273;26383;-55
2022/07/10 05:16:58;;;;;;;3.80;0.70;;;;;;;14.26;77.41;100418.37;105690;1273;22560;-51
2022/07/10 05:19:27;;;;;;;4.60;0.70;;;;;;;14.27;77.43;100412.34;105759;1273;25265;-53
2022/07/10 05:21:55;;;;;;;9.20;0.90;;;;;;;14.29;77.05;100412.36;105744;1273;25395;-53
2022/07/10 05:24:24;;;;;;;5.70;0.80;;;;;;;14.31;77.15;100406.52;105725;1273;22548;-55
2022/07/10 05:26:53;;;;;;;6.10;0.70;;;;;;;14.35;76.41;100409.11;105761;1273;26509;-56
2022/07/10 05:29:22;;;;;;;8.20;0.90;;;;;;;14.43;76.17;100413.45;105916;1274;25267;-55
2022/07/10 05:31:50;;;;;;;7.80;0.80;;;;;;;14.52;75.66;100412.48;106063;1273;22698;-51
2022/07/10 05:34:20;;;;;;;5.90;0.70;;;;;;;14.54;74.78;100409.54;105988;1274;22696;-57
2022/07/10 05:36:50;;;;;;;8.50;1.60;;;;;;;14.53;74.77;100408.85;105687;1273;22566;-57
2022/07/10 05:39:19;;;;;;;5.70;0.80;;;;;;;14.53;74.84;100409.06;105933;1274;22644;-53
2022/07/10 05:41:48;;;;;;;7.20;0.70;;;;;;;14.52;74.75;100415.44;105641;1273;22594;-55
2022/07/10 05:44:19;;;;;;;4.20;0.60;;;;;;;14.52;74.79;100417.58;105773;1273;23261;-52
2022/07/10 05:46:48;;;;;;;3.10;0.60;;;;;;;14.53;74.73;100419.89;105905;1273;24224;-55
2022/07/10 05:49:17;;;;;;;5.50;0.80;;;;;;;14.56;74.92;100417.52;105254;1273;24396;-54
2022/07/10 05:51:46;;;;;;;6.90;0.60;;;;;;;14.61;74.82;100420.23;105639;1274;22556;-55
2022/07/10 05:54:15;;;;;;;5.30;0.50;;;;;;;14.68;74.63;100417.46;106011;1274;24246;-55
2022/07/10 05:56:44;;;;;;;7.30;0.60;;;;;;;14.71;74.20;100422.54;105921;1273;22557;-54
2022/07/10 05:59:13;;;;;;;2.70;0.70;;;;;;;14.73;73.45;100420.98;105950;1274;25213;-59
2022/07/10 06:01:42;;;;;;;9.90;0.60;;;;;;;14.73;72.38;100425.88;105703;1273;26605;-53
2022/07/10 06:04:11;;;;;;;8.70;0.60;;;;;;;14.71;72.17;100427.08;105823;1274;22588;-54
2022/07/10 06:06:40;;;;;;;6.70;0.90;;;;;;;14.73;71.88;100420.67;105468;1273;25437;-55
2022/07/10 06:09:08;;;;;;;4.90;0.50;;;;;;;14.77;72.12;100417.26;105697;1274;22573;-54
2022/07/10 06:11:37;;;;;;;3.90;0.40;;;;;;;14.84;71.59;100414.27;105712;1274;22571;-56
2022/07/10 06:14:06;;;;;;;4.80;0.60;;;;;;;14.92;70.56;100413.23;105494;1274;27576;-52
2022/07/10 06:16:35;;;;;;;5.50;0.60;;;;;;;14.99;69.30;100417.20;105666;1273;22552;-52
2022/07/10 06:19:04;;;;;;;3.60;0.50;;;;;;;15.07;70.04;100413.34;105648;1273;25264;-52
2022/07/10 06:21:33;;;;;;;4.80;0.50;;;;;;;15.16;69.95;100409.18;105615;1273;24417;-52
2022/07/10 06:24:03;;;;;;;7.80;0.60;;;;;;;15.26;69.87;100412.59;106593;1273;22558;-55
2022/07/10 06:26:32;;;;;;;5.10;0.50;;;;;;;15.36;68.83;100413.58;106873;1273;24257;-54
2022/07/10 06:29:00;;;;;;;6.60;0.50;;;;;;;15.46;68.42;100414.34;105883;1274;22561;-55
2022/07/10 06:31:29;;;;;;;5.00;0.50;;;;;;;15.55;67.24;100415.95;108065;1274;22538;-55
2022/07/10 06:33:59;;;;;;;4.70;0.50;;;;;;;15.57;66.31;100413.19;105705;1274;25329;-55
2022/07/10 06:36:27;;;;;;;3.30;0.50;;;;;;;15.56;66.94;100408.33;105746;1274;24274;-55
2022/07/10 06:38:56;;;;;;;4.70;0.50;;;;;;;15.54;66.16;100409.35;105799;1274;22538;-52
2022/07/10 06:41:25;;;;;;;7.10;0.80;;;;;;;15.50;66.98;100407.55;105710;1275;25361;-55
2022/07/10 06:43:54;;;;;;;3.00;0.30;;;;;;;15.53;66.77;100413.85;105782;1275;23338;-56
2022/07/10 06:46:23;;;;;;;5.70;0.60;;;;;;;15.54;65.84;100414.47;105621;1273;26504;-53
2022/07/10 06:48:53;;;;;;;4.50;0.40;;;;;;;15.54;65.48;100412.01;105718;1275;22700;-54
2022/07/10 06:51:22;;;;;;;8.70;0.40;;;;;;;15.52;65.68;100404.48;105641;1274;22532;-52
2022/07/10 06:53:51;;;;;;;5.30;0.30;;;;;;;15.53;65.88;100404.69;105806;1274;24140;-52
2022/07/10 06:56:20;;;;;;;4.40;0.40;;;;;;;15.55;65.09;100402.90;105775;1274;22545;-55
2022/07/10 06:58:49;;;;;;;3.80;0.50;;;;;;;15.52;64.32;100407.91;107095;1274;25274;-56
2022/07/10 07:01:18;;;;;;;7.10;0.40;;;;;;;15.54;64.60;100403.41;106533;1274;22568;-55
2022/07/10 07:03:47;;;;;;;6.60;0.50;;;;;;;15.58;64.27;100407.71;105695;1274;22581;-56
2022/07/10 07:06:16;;;;;;;6.30;0.40;;;;;;;15.57;64.25;100411.19;105516;1273;22573;-52
2022/07/10 07:08:46;;;;;;;3.60;0.40;;;;;;;15.63;64.65;100404.04;105452;1274;25365;-54
2022/07/10 07:11:15;;;;;;;8.10;0.60;;;;;;;15.82;64.57;100403.48;105573;1274;22891;-55
2022/07/10 07:13:44;;;;;;;10.30;0.70;;;;;;;15.94;64.10;100402.48;105563;1274;27225;-51
2022/07/10 07:16:18;;;;;;;4.80;0.40;;;;;;;15.98;63.07;100406.39;105522;1274;22540;-52
2022/07/10 07:18:51;;;;;;;4.60;0.40;;;;;;;15.95;61.91;100410.30;105622;1274;23009;-51
2022/07/10 07:24:07;;;;;;;5.90;0.40;;;;;;;15.66;62.06;100408.19;105552;1274;24267;-54
2022/07/10 07:26:37;;;;;;;3.50;0.30;;;;;;;15.57;61.97;100413.29;105574;1274;22558;-55
2022/07/10 07:29:07;;;;;;;8.30;0.40;;;;;;;15.47;62.06;100419.57;105671;1274;22618;-55
2022/07/10 07:31:36;;;;;;;3.40;0.30;;;;;;;15.35;62.04;100421.40;105766;1274;22524;-54
2022/07/10 07:34:05;;;;;;;6.30;0.50;;;;;;;15.26;62.69;100416.16;105693;1273;22560;-50
2022/07/10 07:36:37;;;;;;;4.70;0.40;;;;;;;15.23;62.18;100423.21;105842;1274;26001;-53
2022/07/10 07:39:08;;;;;;;9.10;0.40;;;;;;;15.20;62.66;100416.66;105676;1274;25471;-55
2022/07/10 07:41:38;;;;;;;2.50;0.30;;;;;;;15.19;62.66;100412.05;105600;1274;24246;-55
2022/07/10 07:44:16;;;;;;;3.80;0.30;;;;;;;15.16;62.64;100410.56;105998;1274;24227;-58
2022/07/10 07:46:47;;;;;;;2.70;0.40;;;;;;;15.09;62.36;100414.21;105817;1274;24548;-53
2022/07/10 07:49:16;;;;;;;4.80;0.30;;;;;;;15.10;62.82;100414.89;105638;1273;24246;-54
2022/07/10 07:51:45;;;;;;;8.10;0.40;;;;;;;15.11;62.47;100420.25;105487;1274;22765;-54
2022/07/10 07:54:16;;;;;;;7.80;0.90;;;;;;;15.12;62.64;100417.49;106082;1274;22770;-56
2022/07/10 07:56:47;;;;;;;6.60;0.40;;;;;;;15.17;62.30;100415.84;105954;1274;25264;-56
2022/07/10 07:59:16;;;;;;;5.90;0.50;;;;;;;15.23;61.92;100416.56;105990;1274;25453;-55
2022/07/10 08:05:18;;;;;;;4.40;0.40;;;;;;;15.39;62.55;100417.79;105877;1274;22541;-56
2022/07/10 08:07:55;;;;;;;4.40;0.40;;;;;;;15.49;62.59;100416.20;106174;1274;25546;-54
2022/07/10 08:10:40;;;;;;;4.90;0.30;;;;;;;15.57;62.46;100415.80;106128;1274;22588;-53
2022/07/10 08:13:12;;;;;;;5.60;0.50;;;;;;;15.64;62.28;100417.65;105663;1274;24399;-56
2022/07/10 08:16:30;;;;;;;8.60;0.50;;;;;;;15.69;62.08;100405.31;105913;1274;24255;-56
2022/07/10 08:19:00;;;;;;;7.60;0.60;;;;;;;15.78;62.29;100408.80;107350;1273;26284;-55
2022/07/10 08:21:30;;;;;;;2.50;0.30;;;;;;;15.84;62.14;100410.34;106562;1274;24398;-53
2022/07/10 08:23:59;;;;;;;6.40;0.30;;;;;;;15.89;61.64;100409.02;105882;1274;24574;-53
2022/07/10 08:26:28;;;;;;;4.60;0.40;;;;;;;15.89;61.53;100412.65;105891;1274;24255;-55
2022/07/10 08:28:58;;;;;;;9.40;0.60;;;;;;;15.87;61.82;100407.64;106193;1274;22624;-56
2022/07/10 08:31:27;;;;;;;9.90;0.60;;;;;;;15.86;61.60;100410.66;106290;1274;22655;-54
2022/07/10 08:33:56;;;;;;;3.40;0.40;;;;;;;15.84;61.67;100411.74;109418;1273;26324;-54
2022/07/10 08:36:26;;;;;;;6.10;0.50;;;;;;;15.84;61.67;100404.05;105946;1274;25245;-54
2022/07/10 08:38:55;;;;;;;4.40;0.30;;;;;;;15.94;61.89;100404.10;109115;1273;22598;-50
2022/07/10 08:41:27;;;;;;;4.50;0.30;;;;;;;16.12;61.86;100403.95;107256;1274;24269;-54
2022/07/10 08:43:57;;;;;;;4.30;0.50;;;;;;;16.22;60.84;100395.44;105767;1274;22486;-58
2022/07/10 08:46:31;;;;;;;7.50;0.40;;;;;;;16.23;60.72;100395.84;106112;1274;22757;-55
2022/07/10 08:49:05;;;;;;;5.90;0.50;;;;;;;16.22;60.58;100400.50;106039;1274;25557;-54
2022/07/10 08:51:40;;;;;;;4.30;0.50;;;;;;;16.17;60.51;100404.95;106371;1274;24345;-53
2022/07/10 08:54:14;;;;;;;2.30;0.30;;;;;;;16.01;59.76;100418.04;106018;1269;25433;-55
2022/07/10 08:56:43;;;;;;;5.90;0.50;;;;;;;15.76;59.71;100413.16;105868;1274;24235;-55
2022/07/10 08:59:27;;;;;;;4.70;0.20;;;;;;;15.53;60.01;100423.83;106054;1274;22836;-54
2022/07/10 09:02:03;;;;;;;3.00;0.30;;;;;;;15.30;61.19;100427.98;106523;1264;22955;31
2022/07/10 09:05:20;;;;;;;2.00;0.30;;;;;;;15.07;61.92;100421.68;106109;1273;22574;-56
2022/07/10 09:07:53;;;;;;;5.40;0.30;;;;;;;14.84;62.91;100422.34;105788;1273;25880;-57
2022/07/10 09:10:24;;;;;;;2.50;0.20;;;;;;;14.74;62.96;100425.63;105726;1274;25503;-53
2022/07/10 09:13:02;;;;;;;2.80;0.20;;;;;;;14.74;62.76;100418.83;105623;1275;23707;-56
2022/07/10 09:15:32;;;;;;;2.60;0.30;;;;;;;14.84;62.40;100429.65;105688;1275;26575;-58
2022/07/10 09:18:03;;;;;;;3.60;0.30;;;;;;;14.93;62.78;100424.23;106456;1274;24223;-58
2022/07/10 09:20:34;;;;;;;1.60;0.20;;;;;;;15.03;63.10;100424.01;105605;1274;22875;-58
2022/07/10 09:23:18;;;;;;;6.40;0.30;;;;;;;15.16;62.80;100425.55;105920;1276;22549;-54
2022/07/10 09:25:58;;;;;;;2.80;0.20;;;;;;;15.31;62.63;100419.55;105701;1274;24276;-59
2022/07/10 09:28:30;;;;;;;6.10;0.40;;;;;;;15.42;61.91;100420.97;105807;1274;24223;-55
2022/07/10 09:30:59;;;;;;;2.10;0.20;;;;;;;15.54;61.30;100418.71;105565;1275;24764;-56
2022/07/10 09:33:30;;;;;;;2.60;0.30;;;;;;;15.69;61.02;100413.66;105736;1274;22690;-54
2022/07/10 09:36:05;;;;;;;3.40;0.20;;;;;;;15.85;59.73;100407.33;105480;1276;24425;-54
2022/07/10 09:38:53;;;;;;;1.20;0.20;;;;;;;15.92;59.36;100404.52;105375;1276;25375;-56
2022/07/10 09:41:28;;;;;;;5.00;0.30;;;;;;;16.08;59.91;100401.27;105622;1274;23308;-55
2022/07/10 09:43:59;;;;;;;2.90;0.20;;;;;;;16.14;59.21;100401.84;105578;1274;25509;-56
2022/07/10 09:46:33;;;;;;;2.10;0.30;;;;;;;16.08;59.21;100403.29;106018;1274;22673;-55
2022/07/10 09:49:10;;;;;;;3.50;0.20;;;;;;;16.04;59.60;100410.66;109478;1274;23020;-53
2022/07/10 09:51:41;;;;;;;3.50;0.20;;;;;;;16.01;59.71;100415.58;109461;1276;22546;-55
2022/07/10 09:54:12;;;;;;;1.30;0.10;;;;;;;15.95;58.14;100425.77;108876;1275;25362;-52
2022/07/10 09:56:46;;;;;;;0.80;0.10;;;;;;;15.89;58.08;100416.95;106016;1276;22561;-54
2022/07/10 09:59:16;;;;;;;2.90;0.30;;;;;;;15.85;58.44;100421.20;105619;1274;50680;-54
2022/07/10 10:01:47;;;;;;;1.50;0.20;;;;;;;15.79;58.74;100426.52;105661;1276;22557;-55
2022/07/10 10:04:18;;;;;;;3.30;0.30;;;;;;;15.76;58.97;100422.41;106057;1275;22709;-51
2022/07/10 10:06:51;;;;;;;3.20;0.20;;;;;;;15.69;58.39;100426.77;105780;1274;22581;-55
2022/07/10 10:09:24;;;;;;;3.20;0.20;;;;;;;15.64;59.19;100419.91;106581;1274;25323;-55
2022/07/10 10:12:00;;;;;;;3.50;0.20;;;;;;;15.71;58.85;100423.91;106237;1263;22663;-63
2022/07/10 10:14:32;;;;;;;3.90;0.20;;;;;;;15.72;59.13;100431.69;105912;1275;22870;-64
2022/07/10 10:17:02;;;;;;;2.20;0.20;;;;;;;15.62;59.81;100426.05;106781;1274;27217;-64
2022/07/10 10:22:21;;;;;;;2.20;0.10;;;;;;;15.50;59.62;100425.45;105484;1274;24286;-64
2022/07/10 10:24:55;;;;;;;3.60;0.30;;;;;;;15.55;59.51;100421.11;105561;1275;22563;-63
2022/07/10 10:27:35;;;;;;;1.50;0.20;;;;;;;15.60;59.01;100423.48;105716;1273;22556;-63
2022/07/10 10:30:05;;;;;;;2.60;0.20;;;;;;;15.67;58.87;100418.98;105597;1274;22552;-64
2022/07/10 10:32:39;;;;;;;3.20;0.20;;;;;;;15.73;58.37;100415.96;105706;1274;23144;-64
2022/07/10 10:35:09;;;;;;;2.20;0.80;;;;;;;15.84;58.22;100414.54;105497;1275;25277;-64
2022/07/10 10:37:42;;;;;;;1.40;0.10;;;;;;;15.96;58.13;100410.04;105532;1274;25504;-64
2022/07/10 10:40:30;;;;;;;4.40;0.20;;;;;;;16.01;57.96;100410.15;105474;1274;23669;-64
2022/07/10 10:43:18;;;;;;;3.10;0.20;;;;;;;16.09;58.57;100404.20;105296;1275;23036;-63
2022/07/10 10:45:48;;;;;;;2.10;0.20;;;;;;;16.15;58.76;100400.00;105697;1274;22695;-63
2022/07/10 10:48:20;;;;;;;1.60;0.20;;;;;;;16.19;58.83;100402.23;105618;1274;22557;-64
2022/07/10 10:50:50;;;;;;;1.30;0.20;;;;;;;16.25;58.21;100400.60;105712;1275;24410;-66
2022/07/10 10:53:22;;;;;;;4.40;0.50;;;;;;;16.34;58.28;100400.21;105493;1275;22686;-64
2022/07/10 10:56:24;;;;;;;2.90;0.10;;;;;;;16.43;58.37;100398.31;105728;1274;22536;-63
2022/07/10 10:58:53;;;;;;;1.30;0.20;;;;;;;16.51;58.10;100396.88;105488;1276;22567;-63
2022/07/10 11:01:31;;;;;;;4.20;0.30;;;;;;;16.60;58.25;100395.07;105350;1274;22651;-65
2022/07/10 11:04:15;;;;;;;3.20;1.10;;;;;;;16.70;57.89;100390.83;105632;1274;24641;-65
2022/07/10 11:06:46;;;;;;;4.90;0.60;;;;;;;16.78;57.75;100390.23;105511;1274;26241;-65
2022/07/10 11:09:26;;;;;;;2.00;0.30;;;;;;;16.85;57.76;100387.29;105527;1274;25293;-65
2022/07/10 11:12:06;;;;;;;3.40;0.20;;;;;;;17.01;57.90;100386.55;105502;1275;22567;-65
2022/07/10 11:14:37;;;;;;;1.80;0.30;;;;;;;17.11;56.31;100387.27;105699;1274;25371;-65
2022/07/10 11:17:08;;;;;;;0.60;0.20;;;;;;;17.14;56.38;100385.98;105483;1274;25425;-65
2022/07/10 11:19:37;;;;;;;1.30;0.20;;;;;;;17.05;55.98;100384.52;105706;1274;22590;-67
2022/07/10 11:22:19;;;;;;;2.30;0.10;;;;;;;16.99;55.46;100383.48;105656;1276;22781;-67
2022/07/10 11:25:04;;;;;;;3.40;0.20;;;;;;;16.96;55.05;100388.42;105518;1275;22547;-65
2022/07/10 11:27:54;;;;;;;2.20;0.20;;;;;;;16.95;55.07;100386.52;105556;1275;22597;-65
2022/07/10 11:30:23;;;;;;;2.70;0.10;;;;;;;16.95;54.16;100388.67;105581;1274;24244;-65
2022/07/10 11:32:52;;;;;;;0.90;0.10;;;;;;;16.95;53.94;100388.11;105793;1274;23130;-65
2022/07/10 11:35:21;;;;;;;3.20;0.20;;;;;;;16.94;53.68;100389.50;105602;1274;24441;-64
2022/07/10 11:37:59;;;;;;;2.40;0.10;;;;;;;16.93;54.06;100382.03;105600;1275;25308;-65
2022/07/10 11:40:29;;;;;;;3.90;0.20;;;;;;;16.97;53.63;100382.21;105659;1274;24253;-65
2022/07/10 11:42:59;;;;;;;3.30;0.10;;;;;;;16.98;52.99;100380.97;105578;1274;22583;-65
2022/07/10 11:45:30;;;;;;;;;;;;;;;17.03;54.40;100381.71;105524;1274;22570;-65
2022/07/10 11:48:00;;;;;;;3.60;0.30;;;;;;;17.09;54.69;100381.63;105627;1274;22554;-65